createdAt,value
2019-05-19T00:01:15.787Z,76789.22
2019-05-19T00:03:45.295Z,76786.19
2019-05-19T00:06:15.223Z,76768.02
2019-05-19T00:08:44.461Z,76783.16
2019-05-19T00:11:14.048Z,76775.08
2019-05-19T00:13:43.315Z,76780.13
2019-05-19T00:16:12.585Z,76795.28
2019-05-19T00:18:42.113Z,76800.33
2019-05-19T00:21:11.940Z,76778.11
2019-05-19T00:23:41.458Z,76798.31
2019-05-19T00:26:10.673Z,76828.61
2019-05-19T00:28:39.921Z,76839.73
2019-05-19T00:31:09.160Z,76849.83
2019-05-19T00:33:39.072Z,76849.83
2019-05-19T00:36:08.295Z,76848.81
2019-05-19T00:38:37.523Z,76826.59
2019-05-19T00:41:06.859Z,76837.70
2019-05-19T00:43:36.076Z,76846.80
2019-05-19T00:46:05.427Z,76844.78
2019-05-19T00:48:34.939Z,76854.88
2019-05-19T00:51:04.467Z,76868.01
2019-05-19T00:53:34.132Z,76884.17
2019-05-19T00:56:03.399Z,76888.21
2019-05-19T00:58:34.130Z,76900.33
2019-05-19T01:01:03.616Z,76912.45
2019-05-19T01:03:33.169Z,76911.44
2019-05-19T01:06:02.400Z,76912.45
2019-05-19T01:08:31.747Z,76931.64
2019-05-19T01:11:00.956Z,76927.61
2019-05-19T01:13:30.213Z,76923.56
2019-05-19T01:15:59.455Z,76921.55
2019-05-19T01:18:28.701Z,76906.39
2019-05-19T01:20:58.474Z,76918.52
2019-05-19T01:23:27.705Z,76919.52
2019-05-19T01:25:56.941Z,76889.22
2019-05-19T01:28:26.617Z,76904.38
2019-05-19T01:30:55.851Z,76919.52
2019-05-19T01:33:25.450Z,76923.56
2019-05-19T01:35:54.676Z,76914.47
2019-05-19T01:38:24.488Z,76913.47
2019-05-19T01:40:53.740Z,76904.38
2019-05-19T01:43:22.975Z,76928.61
2019-05-19T01:45:52.200Z,76930.63
2019-05-19T01:48:21.715Z,76928.61
2019-05-19T01:50:51.213Z,76940.73
2019-05-19T01:53:20.455Z,76954.88
2019-05-19T01:55:49.956Z,76963.97
2019-05-19T01:58:19.178Z,76960.94
2019-05-19T02:00:48.404Z,76945.78
2019-05-19T02:03:17.613Z,76954.88
2019-05-19T02:05:46.930Z,76963.97
2019-05-19T02:08:16.542Z,76958.92
2019-05-19T02:10:45.792Z,76976.09
2019-05-19T02:14:59.418Z,77000.34
2019-05-19T02:17:29.667Z,77009.42
2019-05-19T02:19:58.901Z,77001.34
2019-05-19T02:22:28.673Z,77010.44
2019-05-19T02:24:57.899Z,77014.48
2019-05-19T02:27:27.476Z,77009.42
2019-05-19T02:29:56.844Z,77009.42
2019-05-19T02:32:26.750Z,77010.44
2019-05-19T02:34:55.974Z,77010.44
2019-05-19T02:37:25.480Z,77012.45
2019-05-19T02:39:55.015Z,77016.50
2019-05-19T02:42:25.826Z,77026.59
2019-05-19T02:44:55.830Z,77030.64
2019-05-19T02:47:25.357Z,77057.91
2019-05-19T02:49:56.472Z,77040.73
2019-05-19T02:52:27.271Z,77047.81
2019-05-19T02:54:56.859Z,77045.79
2019-05-19T02:57:26.122Z,77041.75
2019-05-19T02:59:55.764Z,77032.66
2019-05-19T03:02:25.143Z,77022.56
2019-05-19T03:04:54.368Z,77043.77
2019-05-19T03:07:23.599Z,77042.76
2019-05-19T03:09:53.140Z,77046.80
2019-05-19T03:12:22.727Z,77051.85
2019-05-19T03:14:52.313Z,77059.94
2019-05-19T03:17:21.559Z,77065.99
2019-05-19T03:19:50.804Z,77057.91
2019-05-19T03:22:20.037Z,77049.83
2019-05-19T03:24:49.284Z,77027.61
2019-05-19T03:27:18.526Z,77012.45
2019-05-19T03:29:52.807Z,77018.52
2019-05-19T03:32:44.713Z,77008.41
2019-05-19T03:35:13.975Z,77019.52
2019-05-19T03:37:43.194Z,77022.56
2019-05-19T03:40:21.399Z,77025.59
2019-05-19T03:42:51.308Z,77035.69
2019-05-19T03:45:20.815Z,77018.52
2019-05-19T03:47:50.359Z,76981.14
2019-05-19T03:50:19.599Z,76983.16
2019-05-19T03:52:48.899Z,76980.13
2019-05-19T03:55:18.343Z,76977.10
2019-05-19T03:57:47.912Z,76937.70
2019-05-19T04:00:17.376Z,76944.78
2019-05-19T04:02:47.022Z,76937.70
2019-05-19T04:05:16.624Z,76934.67
2019-05-19T04:07:45.839Z,76930.63
2019-05-19T04:10:16.237Z,76921.55
2019-05-19T04:12:45.443Z,76912.45
2019-05-19T04:15:15.831Z,76905.38
2019-05-19T04:17:46.217Z,76895.28
2019-05-19T04:20:16.124Z,76879.13
2019-05-19T04:22:45.344Z,76897.30
2019-05-19T04:25:14.577Z,76875.08
2019-05-19T04:27:43.885Z,76838.72
2019-05-19T04:30:13.521Z,76807.41
2019-05-19T04:32:42.751Z,76797.30
2019-05-19T04:35:12.195Z,76767.00
2019-05-19T04:37:41.474Z,76758.92
2019-05-19T04:40:11.448Z,76748.81
2019-05-19T04:42:41.010Z,76736.70
2019-05-19T04:45:10.438Z,76747.81
2019-05-19T04:47:40.254Z,76710.44
2019-05-19T04:50:09.996Z,76658.92
2019-05-19T04:52:39.325Z,76622.56
2019-05-19T04:55:09.066Z,76596.30
2019-05-19T04:57:38.326Z,76576.09
2019-05-19T05:00:08.521Z,76542.77
2019-05-19T05:02:37.758Z,76494.28
2019-05-19T05:05:07.356Z,76477.12
2019-05-19T05:07:36.596Z,76449.84
2019-05-19T05:10:07.022Z,76393.29
2019-05-19T05:12:36.283Z,76325.62
2019-05-19T05:15:06.245Z,76243.81
2019-05-19T05:17:35.496Z,76169.08
2019-05-19T05:20:04.963Z,76094.34
2019-05-19T05:22:34.189Z,76040.82
2019-05-19T05:25:03.451Z,76098.38
2019-05-19T05:27:33.163Z,76016.58
2019-05-19T05:30:02.494Z,75885.30
2019-05-19T05:32:31.719Z,75846.92
2019-05-19T05:35:00.977Z,75876.21
2019-05-19T05:37:30.508Z,75927.71
2019-05-19T05:40:00.710Z,75885.30
2019-05-19T05:42:31.878Z,75796.44
2019-05-19T05:45:01.388Z,75766.14
2019-05-19T05:47:30.655Z,75792.39
2019-05-19T05:50:00.378Z,75815.62
2019-05-19T05:52:38.055Z,75792.39
2019-05-19T05:55:00.933Z,75831.78
2019-05-19T05:57:30.158Z,75840.86
2019-05-19T06:00:00.065Z,75840.86
2019-05-19T06:02:30.014Z,75897.42
2019-05-19T06:04:59.277Z,75913.58
2019-05-19T06:07:28.495Z,75954.98
2019-05-19T06:09:57.777Z,75999.41
2019-05-19T06:12:27.007Z,75908.53
2019-05-19T06:14:56.328Z,75811.58
2019-05-19T06:17:25.636Z,75780.27
2019-05-19T06:19:54.855Z,75760.08
2019-05-19T06:22:24.217Z,75746.95
2019-05-19T06:24:53.427Z,75737.86
2019-05-19T06:27:22.699Z,75767.15
2019-05-19T06:29:52.089Z,75775.23
2019-05-19T06:32:43.422Z,75749.98
2019-05-19T06:35:13.410Z,75714.64
2019-05-19T06:37:42.672Z,75786.34
2019-05-19T06:40:12.095Z,75906.51
2019-05-19T06:42:42.677Z,75910.55
2019-05-19T06:45:12.291Z,75831.78
2019-05-19T06:47:41.536Z,75772.20
2019-05-19T06:50:11.090Z,75724.73
2019-05-19T06:52:40.333Z,75793.41
2019-05-19T06:57:17.365Z,75712.62
2019-05-19T06:59:46.626Z,75753.01
2019-05-19T07:02:16.497Z,75759.06
2019-05-19T07:04:46.393Z,75878.23
2019-05-19T07:07:15.942Z,75987.30
2019-05-19T07:09:57.474Z,76080.20
2019-05-19T07:12:16.444Z,76081.22
2019-05-19T07:14:47.107Z,76055.97
2019-05-19T07:17:16.345Z,76084.25
2019-05-19T07:19:45.784Z,76044.86
2019-05-19T07:22:15.019Z,76098.38
2019-05-19T07:24:44.516Z,76116.56
2019-05-19T07:27:13.865Z,76065.06
2019-05-19T07:29:43.081Z,76022.64
2019-05-19T07:32:12.336Z,76066.06
2019-05-19T07:34:41.924Z,76079.20
2019-05-19T07:37:11.839Z,76102.42
2019-05-19T07:39:41.216Z,76051.93
2019-05-19T07:42:10.469Z,76023.65
2019-05-19T07:44:41.153Z,76005.47
2019-05-19T07:47:10.377Z,75985.27
2019-05-19T07:49:40.093Z,75946.90
2019-05-19T07:52:09.353Z,75955.98
2019-05-19T07:54:38.568Z,75947.91
2019-05-19T07:57:08.275Z,75994.36
2019-05-19T07:59:37.562Z,75976.19
2019-05-19T08:02:06.816Z,76004.47
2019-05-19T08:04:36.336Z,76045.87
2019-05-19T08:07:05.636Z,76013.55
2019-05-19T08:09:35.026Z,75995.38
2019-05-19T08:12:04.510Z,75987.30
2019-05-19T08:14:34.020Z,75991.34
2019-05-19T08:17:03.311Z,76011.53
2019-05-19T08:19:32.533Z,76005.47
2019-05-19T08:22:02.223Z,75986.28
2019-05-19T08:24:31.486Z,75945.89
2019-05-19T08:27:01.039Z,75898.42
2019-05-19T08:29:30.302Z,75906.51
2019-05-19T08:31:59.887Z,75929.73
2019-05-19T08:34:29.124Z,75946.90
2019-05-19T08:36:58.367Z,75880.25
2019-05-19T08:39:27.610Z,75885.30
2019-05-19T08:41:57.040Z,75885.30
2019-05-19T08:44:26.267Z,75853.99
2019-05-19T08:46:56.174Z,75873.18
2019-05-19T08:49:25.986Z,75871.16
2019-05-19T08:51:55.285Z,75861.06
2019-05-19T08:54:24.526Z,75859.05
2019-05-19T08:56:53.770Z,75808.55
2019-05-19T08:59:23.182Z,75769.17
2019-05-19T09:01:52.439Z,75807.54
2019-05-19T09:04:21.770Z,75814.61
2019-05-19T09:06:51.292Z,75786.34
2019-05-19T09:09:20.867Z,75853.99
2019-05-19T09:11:50.110Z,75865.10
2019-05-19T09:14:19.386Z,75898.42
2019-05-19T09:16:48.706Z,75900.45
2019-05-19T09:19:17.940Z,75868.13
2019-05-19T09:21:47.204Z,75844.91
2019-05-19T09:24:29.503Z,75845.91
2019-05-19T09:26:47.763Z,75795.42
2019-05-19T09:29:17.002Z,75800.47
2019-05-19T09:31:46.293Z,75793.41
2019-05-19T09:34:15.525Z,75793.41
2019-05-19T09:36:44.796Z,75763.11
2019-05-19T09:39:14.022Z,75720.70
2019-05-19T09:41:43.262Z,75737.86
2019-05-19T09:44:12.534Z,75699.49
2019-05-19T09:46:42.376Z,75721.70
2019-05-19T09:49:33.927Z,75739.88
2019-05-19T09:52:03.678Z,75735.84
2019-05-19T09:54:44.143Z,75709.59
2019-05-19T09:57:04.112Z,75693.43
2019-05-19T09:59:34.857Z,75671.22
2019-05-19T10:02:04.548Z,75664.15
2019-05-19T10:04:33.989Z,75669.20
2019-05-19T10:07:04.026Z,75679.30
2019-05-19T10:10:03.527Z,75687.38
2019-05-19T10:12:32.758Z,75650.01
2019-05-19T10:15:02.838Z,75608.61
2019-05-19T10:17:32.549Z,75565.19
2019-05-19T10:20:02.509Z,75547.02
2019-05-19T10:22:31.887Z,75563.17
2019-05-19T10:25:20.395Z,75565.19
2019-05-19T10:27:32.762Z,75561.15
2019-05-19T10:30:02.079Z,75536.91
2019-05-19T10:32:31.300Z,75455.13
2019-05-19T10:35:00.540Z,75471.28
2019-05-19T10:37:29.816Z,75460.17
2019-05-19T10:39:59.043Z,75414.73
2019-05-19T10:42:28.763Z,75393.53
2019-05-19T10:44:58.240Z,75440.98
2019-05-19T10:47:27.461Z,75501.57
2019-05-19T10:49:58.113Z,75510.66
2019-05-19T10:52:28.018Z,75568.22
2019-05-19T10:54:57.249Z,75596.48
2019-05-19T10:57:27.126Z,75521.77
2019-05-19T10:59:56.384Z,75477.34
2019-05-19T11:02:25.604Z,75490.47
2019-05-19T11:04:55.022Z,75487.44
2019-05-19T11:07:24.240Z,75478.34
2019-05-19T11:09:53.947Z,75489.45
2019-05-19T11:12:23.379Z,75422.81
2019-05-19T11:14:52.958Z,75451.09
2019-05-19T11:17:22.207Z,75434.93
2019-05-19T11:19:51.771Z,75447.05
2019-05-19T11:22:21.320Z,75466.23
2019-05-19T11:24:50.624Z,75515.70
2019-05-19T11:27:19.874Z,75472.29
2019-05-19T11:29:49.314Z,75401.61
2019-05-19T11:32:19.005Z,75354.15
2019-05-19T11:34:49.886Z,75386.46
2019-05-19T11:37:19.133Z,75431.90
2019-05-19T11:39:48.413Z,75381.41
2019-05-19T11:42:17.896Z,75354.15
2019-05-19T11:44:47.108Z,75351.13
2019-05-19T11:47:16.311Z,75395.55
2019-05-19T11:49:46.021Z,75401.61
2019-05-19T11:52:15.238Z,75373.34
2019-05-19T11:54:44.479Z,75377.38
2019-05-19T11:57:13.758Z,75414.73
2019-05-19T11:59:42.991Z,75437.95
2019-05-19T12:02:12.380Z,75430.89
2019-05-19T12:04:41.890Z,75432.91
2019-05-19T12:07:11.515Z,75416.75
2019-05-19T12:09:41.496Z,75370.30
2019-05-19T12:12:10.759Z,75308.71
2019-05-19T12:14:40.168Z,75304.67
2019-05-19T12:17:09.481Z,75400.59
2019-05-19T12:19:38.998Z,75376.36
2019-05-19T12:22:08.253Z,75380.41
2019-05-19T12:24:37.824Z,75346.07
2019-05-19T12:27:07.091Z,75364.25
2019-05-19T12:29:36.613Z,75348.09
2019-05-19T12:32:05.926Z,75369.30
2019-05-19T12:34:35.525Z,75468.25
2019-05-19T12:37:04.766Z,75466.23
2019-05-19T12:39:34.017Z,75475.31
2019-05-19T12:42:03.271Z,75438.97
2019-05-19T12:44:32.937Z,75397.57
2019-05-19T12:47:02.479Z,75356.17
2019-05-19T12:49:32.056Z,75401.61
2019-05-19T12:52:01.351Z,75341.02
2019-05-19T12:54:30.641Z,75314.77
2019-05-19T12:57:00.054Z,75276.41
2019-05-19T12:59:29.635Z,75260.25
2019-05-19T13:01:58.866Z,75165.34
2019-05-19T13:04:28.482Z,75190.58
2019-05-19T13:06:57.726Z,75195.63
2019-05-19T13:09:26.954Z,75219.86
2019-05-19T13:11:56.285Z,75180.48
2019-05-19T13:14:25.550Z,75134.03
2019-05-19T13:16:55.107Z,75165.34
2019-05-19T13:19:24.353Z,75107.78
2019-05-19T13:21:53.963Z,75199.66
2019-05-19T13:24:25.045Z,75304.67
2019-05-19T13:26:56.882Z,75324.87
2019-05-19T13:29:28.100Z,75317.80
2019-05-19T13:31:57.663Z,75341.02
2019-05-19T13:34:27.050Z,75389.49
2019-05-19T13:36:56.567Z,75385.45
2019-05-19T13:39:26.178Z,75334.97
2019-05-19T13:41:55.844Z,75291.55
2019-05-19T13:44:25.395Z,75276.41
2019-05-19T13:46:55.321Z,75267.31
2019-05-19T13:49:24.808Z,75228.95
2019-05-19T13:51:54.429Z,75181.49
2019-05-19T13:54:23.650Z,75109.80
2019-05-19T13:56:52.913Z,75109.80
2019-05-19T13:59:22.270Z,75151.20
2019-05-19T14:01:51.813Z,75118.89
2019-05-19T14:04:21.039Z,75111.83
2019-05-19T14:06:50.897Z,75092.64
2019-05-19T14:09:20.600Z,75060.33
2019-05-19T14:11:49.876Z,75026.00
2019-05-19T14:14:19.145Z,75027.02
2019-05-19T14:16:48.771Z,74954.32
2019-05-19T14:19:18.418Z,75057.30
2019-05-19T14:21:47.765Z,75173.41
2019-05-19T14:24:17.099Z,75249.14
2019-05-19T14:26:46.355Z,75260.25
2019-05-19T14:29:15.566Z,75341.02
2019-05-19T14:31:44.841Z,75373.34
2019-05-19T14:34:14.061Z,75371.31
2019-05-19T14:36:43.331Z,75391.51
2019-05-19T14:39:12.718Z,75383.43
2019-05-19T14:41:46.732Z,75391.51
2019-05-19T14:44:15.957Z,75366.27
2019-05-19T14:46:45.583Z,75384.44
2019-05-19T14:49:14.841Z,75375.36
2019-05-19T14:51:44.124Z,75398.58
2019-05-19T14:54:13.423Z,75377.38
2019-05-19T14:56:42.643Z,75399.59
2019-05-19T14:59:11.850Z,75419.78
2019-05-19T15:01:41.483Z,75386.46
2019-05-19T15:04:10.717Z,75397.57
2019-05-19T15:06:40.343Z,75390.50
2019-05-19T15:09:10.147Z,75339.00
2019-05-19T15:11:39.461Z,75288.52
2019-05-19T15:14:09.168Z,75231.98
2019-05-19T15:16:38.533Z,75238.03
2019-05-19T15:19:07.763Z,75177.45
2019-05-19T15:21:36.992Z,75200.67
2019-05-19T15:24:06.347Z,75284.48
2019-05-19T15:26:39.597Z,75780.27
2019-05-19T15:29:08.874Z,76118.58
2019-05-19T15:31:38.364Z,76243.81
2019-05-19T15:34:07.581Z,76229.67
2019-05-19T15:36:37.213Z,76236.74
2019-05-19T15:39:07.747Z,76225.63
2019-05-19T15:41:37.521Z,76184.23
2019-05-19T15:44:09.087Z,76181.20
2019-05-19T15:46:40.262Z,76192.30
2019-05-19T15:49:09.794Z,76202.41
2019-05-19T15:51:58.331Z,76195.34
2019-05-19T15:54:13.206Z,76185.23
2019-05-19T15:56:43.921Z,76164.03
2019-05-19T15:59:13.498Z,76144.84
2019-05-19T16:01:42.829Z,76148.88
2019-05-19T16:04:12.565Z,76149.89
2019-05-19T16:06:42.114Z,76133.73
2019-05-19T16:09:11.897Z,76114.55
2019-05-19T16:11:41.293Z,76085.25
2019-05-19T16:14:10.617Z,76075.16
2019-05-19T16:16:41.184Z,76063.04
2019-05-19T16:19:10.462Z,76067.08
2019-05-19T16:21:39.688Z,76070.11
2019-05-19T16:24:08.989Z,76081.22
2019-05-19T16:26:38.662Z,76032.73
2019-05-19T16:29:08.871Z,75993.36
2019-05-19T16:31:38.238Z,75968.11
2019-05-19T16:34:07.819Z,75935.80
2019-05-19T16:36:37.063Z,75953.97
2019-05-19T16:39:07.300Z,75974.17
2019-05-19T16:41:36.977Z,75975.17
2019-05-19T16:44:06.256Z,75993.36
2019-05-19T16:46:35.867Z,76041.83
2019-05-19T16:49:05.103Z,76071.12
2019-05-19T16:51:34.679Z,76044.86
2019-05-19T16:54:08.039Z,76064.05
2019-05-19T16:56:37.677Z,76070.11
2019-05-19T16:59:07.304Z,76080.20
2019-05-19T17:01:37.985Z,76106.46
2019-05-19T17:04:07.911Z,76122.63
2019-05-19T17:06:37.136Z,76144.84
2019-05-19T17:09:06.896Z,76142.82
2019-05-19T17:11:36.191Z,76150.90
2019-05-19T17:14:05.609Z,76142.82
2019-05-19T17:16:34.930Z,76203.41
2019-05-19T17:19:06.245Z,76247.85
2019-05-19T17:21:35.804Z,76273.10
2019-05-19T17:24:05.063Z,76292.29
2019-05-19T17:26:35.150Z,76309.46
2019-05-19T17:29:04.694Z,76318.55
2019-05-19T17:31:34.267Z,76325.62
2019-05-19T17:34:03.745Z,76338.75
2019-05-19T17:36:33.333Z,76369.05
2019-05-19T17:39:02.693Z,76389.25
2019-05-19T17:41:31.938Z,76406.42
2019-05-19T17:44:01.165Z,76419.55
2019-05-19T17:46:30.442Z,76435.70
2019-05-19T17:49:00.481Z,76430.66
2019-05-19T17:51:30.284Z,76457.92
2019-05-19T17:54:01.410Z,76469.04
2019-05-19T17:56:31.308Z,76491.26
2019-05-19T17:59:14.530Z,76493.28
2019-05-19T18:01:32.628Z,76488.23
2019-05-19T18:04:01.864Z,76475.09
2019-05-19T18:06:31.100Z,76494.28
2019-05-19T18:09:01.158Z,76508.42
2019-05-19T18:11:30.398Z,76526.61
2019-05-19T18:14:01.374Z,76534.69
2019-05-19T18:16:30.778Z,76547.81
2019-05-19T18:19:01.227Z,76557.92
2019-05-19T18:21:30.821Z,76553.88
2019-05-19T18:24:01.016Z,76558.92
2019-05-19T18:26:30.854Z,76557.92
2019-05-19T18:29:02.221Z,76574.08
2019-05-19T18:31:31.479Z,76582.16
2019-05-19T18:34:00.720Z,76581.15
2019-05-19T18:36:30.500Z,76581.15
2019-05-19T18:39:00.046Z,76587.21
2019-05-19T18:41:29.321Z,76596.30
2019-05-19T18:43:59.434Z,76606.40
2019-05-19T18:46:28.664Z,76608.42
2019-05-19T18:48:58.668Z,76615.48
2019-05-19T18:51:28.149Z,76618.52
2019-05-19T18:53:57.692Z,76611.45
2019-05-19T18:56:26.979Z,76630.64
2019-05-19T18:58:56.227Z,76650.84
2019-05-19T19:01:25.523Z,76694.27
2019-05-19T19:03:54.808Z,76714.48
2019-05-19T19:06:24.689Z,76708.41
2019-05-19T19:09:14.574Z,76711.45
2019-05-19T19:11:43.832Z,76710.44
2019-05-19T19:14:13.480Z,76709.42
2019-05-19T19:16:42.691Z,76710.44
2019-05-19T19:19:11.958Z,76703.36
2019-05-19T19:21:41.229Z,76698.31
2019-05-19T19:24:10.456Z,76698.31
2019-05-19T19:26:41.859Z,76705.38
2019-05-19T19:29:11.101Z,76714.48
2019-05-19T19:31:48.730Z,76722.55
2019-05-19T19:34:12.044Z,76725.59
2019-05-19T19:36:41.931Z,76736.70
2019-05-19T19:39:11.196Z,76740.73
2019-05-19T19:41:40.390Z,76727.61
2019-05-19T19:44:10.345Z,76728.61
2019-05-19T19:46:40.264Z,76726.59
2019-05-19T19:49:09.793Z,76732.66
2019-05-19T19:51:39.086Z,76735.69
2019-05-19T19:54:08.686Z,76740.73
2019-05-19T19:56:38.474Z,76748.81
2019-05-19T19:59:07.965Z,76744.78
2019-05-19T20:01:38.233Z,76741.75
2019-05-19T20:04:07.866Z,76752.86
2019-05-19T20:06:37.331Z,76760.94
2019-05-19T20:09:07.364Z,76767.00
2019-05-19T20:11:37.005Z,76772.05
2019-05-19T20:14:06.783Z,76763.97
2019-05-19T20:16:36.029Z,76759.93
2019-05-19T20:19:05.262Z,76753.87
2019-05-19T20:21:34.559Z,76746.80
2019-05-19T20:24:04.508Z,76744.78
2019-05-19T20:26:33.722Z,76742.76
2019-05-19T20:29:03.654Z,76737.70
2019-05-19T20:31:32.941Z,76743.77
2019-05-19T20:34:02.173Z,76736.70
2019-05-19T20:36:31.394Z,76737.70
2019-05-19T20:39:00.703Z,76740.73
2019-05-19T20:41:30.336Z,76738.72
2019-05-19T20:43:59.929Z,76742.76
2019-05-19T20:46:29.571Z,76737.70
2019-05-19T20:48:58.806Z,76730.64
2019-05-19T20:51:28.477Z,76732.66
2019-05-19T20:53:57.696Z,76726.59
2019-05-19T20:56:26.977Z,76730.64
2019-05-19T20:58:56.877Z,76732.66
2019-05-19T21:01:26.469Z,76736.70
2019-05-19T21:03:55.729Z,76739.73
2019-05-19T21:06:26.063Z,76744.78
2019-05-19T21:08:55.700Z,76744.78
2019-05-19T21:11:24.971Z,76741.75
2019-05-19T21:13:54.300Z,76744.78
2019-05-19T21:16:23.865Z,76745.79
2019-05-19T21:18:53.108Z,76734.67
2019-05-19T21:21:23.053Z,76728.61
2019-05-19T21:23:52.530Z,76728.61
2019-05-19T21:26:22.060Z,76720.53
2019-05-19T21:28:51.672Z,76706.39
2019-05-19T21:31:21.188Z,76700.34
2019-05-19T21:33:50.431Z,76694.27
2019-05-19T21:36:20.026Z,76717.50
2019-05-19T21:38:49.300Z,76739.73
2019-05-19T21:41:18.531Z,76706.39
2019-05-19T21:43:48.500Z,76710.44
2019-05-19T21:46:17.746Z,76730.64
2019-05-19T21:48:46.985Z,76747.81
2019-05-19T21:51:16.506Z,76765.98
2019-05-19T21:53:46.090Z,76764.98
2019-05-19T21:56:15.316Z,76776.09
2019-05-19T21:58:45.027Z,76773.06
2019-05-19T22:01:22.940Z,76774.07
2019-05-19T22:03:45.249Z,76770.03
2019-05-19T22:06:15.193Z,76760.94
2019-05-19T22:08:44.437Z,76769.02
2019-05-19T22:11:14.100Z,76768.02
2019-05-19T22:13:43.467Z,76767.00
2019-05-19T22:16:13.902Z,76767.00
2019-05-19T22:18:43.950Z,76764.98
2019-05-19T22:21:13.175Z,76758.92
2019-05-19T22:23:42.423Z,76769.02
2019-05-19T22:26:11.655Z,76770.03
2019-05-19T22:28:41.257Z,76757.91
2019-05-19T22:31:10.874Z,76755.89
2019-05-19T22:33:40.366Z,76758.92
2019-05-19T22:36:09.599Z,76753.87
2019-05-19T22:38:38.829Z,76759.93
2019-05-19T22:41:08.069Z,76758.92
2019-05-19T22:43:39.515Z,76745.79
2019-05-19T22:46:08.835Z,76744.78
2019-05-19T22:48:38.083Z,76734.67
2019-05-19T22:51:07.632Z,76729.63
2019-05-19T22:53:36.920Z,76732.66
2019-05-19T22:56:06.458Z,76725.59
2019-05-19T22:58:35.768Z,76729.63
2019-05-19T23:01:05.070Z,76732.66
2019-05-19T23:03:34.311Z,76725.59
2019-05-19T23:06:03.962Z,76725.59
2019-05-19T23:08:34.244Z,76726.59
2019-05-19T23:11:03.480Z,76727.61
2019-05-19T23:13:32.788Z,76721.55
2019-05-19T23:16:02.014Z,76725.59
2019-05-19T23:18:32.009Z,76734.67
2019-05-19T23:21:01.825Z,76737.70
2019-05-19T23:23:31.038Z,76737.70
2019-05-19T23:26:00.267Z,76736.70
2019-05-19T23:28:29.696Z,76729.63
2019-05-19T23:30:58.927Z,76739.73
2019-05-19T23:33:28.198Z,76745.79
2019-05-19T23:35:57.615Z,76753.87
2019-05-19T23:38:27.257Z,76780.13
2019-05-19T23:40:56.841Z,76793.27
2019-05-19T23:43:26.536Z,76801.34
2019-05-19T23:45:56.125Z,76787.20
2019-05-19T23:48:26.347Z,76787.20
2019-05-19T23:50:55.667Z,76785.18
2019-05-19T23:53:24.905Z,76796.30
2019-05-19T23:55:54.137Z,76810.44
2019-05-19T23:58:23.785Z,76818.52
